Chernjaevo, Russia
Current Conditions -  °F | °C
As of 8:30 AM on Sunday 23 Nov 2014 (Local Time) from UHBB Reporting Station
Clear Clear  
Wind Chill: -2°   Ceiling: Unl
Heat Index: -2°   Visibility: 6mi
Dew Point: -4°   Wind: 2mph
Humidity: 92%   Direction: NA
Pressure: 30.15"   Gusts: NA
Location:  52.78°N, 126°E
Report Text: UHBB 222330Z VRB01MPS CAVOK M19/M20 Q1021 NOSIG RMK QFE748/099736810350
Loading
Personal Weather Stations






























Interactive Weather Map New forecast layout! Learn more

10-Day Weather Forecast

Advertisements
Track Severe Weather on mobile